Time;durP1;ratioP1;P1;durP2;ratioP2;P2;SDS_P1;SDS_P2;PMS_P1;PMS_P2;Temp;Humidity;BMP_temperature;BMP_pressure;BME280_temperature;BME280_humidity;BME280_pressure;Samples;Min_cycle;Max_cycle;Signal;HPM_P1;HPM_P2
2020/12/11 00:01:58;;;;;;;46.25;22.23;;;27.20;87.10;;;;;;4974309;28;20106;-84
2020/12/11 00:04:25;;;;;;;48.15;21.48;;;27.20;87.10;;;;;;4989924;28;20331;-84
2020/12/11 00:06:52;;;;;;;37.65;20.38;;;27.10;86.40;;;;;;4971789;28;20105;-84
2020/12/11 00:09:36;;;;;;;38.60;17.98;;;27.00;87.30;;;;;;5006297;28;20109;-86
2020/12/11 00:12:03;;;;;;;24.02;12.07;;;27.00;86.40;;;;;;4973579;28;20094;-86
2020/12/11 00:14:29;;;;;;;18.85;8.80;;;27.00;87.40;;;;;;4989434;28;20046;-87
2020/12/11 00:16:56;;;;;;;25.02;8.38;;;27.00;87.60;;;;;;4990182;28;20035;-88
2020/12/11 00:19:24;;;;;;;14.40;7.60;;;26.90;88.20;;;;;;5005741;28;20031;-91
2020/12/11 00:21:52;;;;;;;10.40;5.85;;;26.90;86.70;;;;;;4973664;28;20035;-87
2020/12/11 00:24:21;;;;;;;10.30;6.20;;;26.90;87.50;;;;;;4957926;28;20066;-88
2020/12/11 00:26:51;;;;;;;10.73;5.00;;;27.00;87.00;;;;;;4972157;28;20346;-85
2020/12/11 00:29:42;;;;;;;8.48;5.05;;;26.80;88.10;;;;;;4992018;28;20019;-84
2020/12/11 00:32:10;;;;;;;18.90;7.18;;;26.80;87.00;;;;;;4991974;28;20031;-86
2020/12/11 00:34:57;;;;;;;9.45;5.63;;;26.80;86.90;;;;;;4990926;28;20078;-88
2020/12/11 00:37:43;;;;;;;10.60;5.38;;;26.80;86.50;;;;;;4950873;29;20047;-86
2020/12/11 00:40:11;;;;;;;8.85;4.47;;;26.80;86.90;;;;;;4931440;29;20027;-85
2020/12/11 00:42:43;;;;;;;4.93;4.30;;;26.80;86.50;;;;;;4936811;29;20039;-81
2020/12/11 00:45:13;;;;;;;6.45;4.35;;;26.80;86.60;;;;;;4959296;29;20032;-84
2020/12/11 00:47:39;;;;;;;6.05;4.35;;;26.80;87.50;;;;;;4939681;29;20047;-86
2020/12/11 00:50:06;;;;;;;7.45;4.18;;;26.80;86.90;;;;;;4934002;29;20038;-86
2020/12/11 00:52:33;;;;;;;9.05;4.63;;;26.70;87.70;;;;;;4937353;29;20221;-85
2020/12/11 00:55:09;;;;;;;8.40;5.13;;;26.60;86.40;;;;;;4951165;29;20059;-85
2020/12/11 00:57:36;;;;;;;7.45;4.65;;;26.70;86.80;;;;;;4947630;29;20058;-86
2020/12/11 01:00:04;;;;;;;7.88;4.32;;;26.70;86.90;;;;;;4971747;29;20090;-84
2020/12/11 01:02:31;;;;;;;4.70;3.25;;;26.70;86.90;;;;;;4986239;28;20038;-86
2020/12/11 01:05:03;;;;;;;9.18;3.50;;;26.70;86.90;;;;;;4970302;29;20050;-83
2020/12/11 01:07:30;;;;;;;6.15;3.85;;;26.60;87.40;;;;;;4969611;28;20058;-86
2020/12/11 01:09:58;;;;;;;5.30;4.30;;;26.60;86.80;;;;;;4991343;28;20042;-85
2020/12/11 01:12:27;;;;;;;6.03;3.50;;;26.50;86.20;;;;;;5013057;28;20038;-85
2020/12/11 01:14:53;;;;;;;3.97;3.30;;;26.60;86.40;;;;;;4996127;28;20389;-84
2020/12/11 01:17:24;;;;;;;5.45;3.13;;;26.60;86.60;;;;;;4999273;28;20038;-87
2020/12/11 01:19:51;;;;;;;8.30;3.10;;;26.60;86.70;;;;;;5010204;28;20038;-89
2020/12/11 01:22:18;;;;;;;6.15;3.30;;;26.50;86.40;;;;;;4998734;28;20109;-85
2020/12/11 01:24:48;;;;;;;6.45;3.17;;;26.50;86.70;;;;;;4999670;28;20022;-90
2020/12/11 01:27:19;;;;;;;11.98;3.42;;;26.40;86.60;;;;;;5013681;28;20041;-89
2020/12/11 01:29:48;;;;;;;6.57;3.20;;;26.40;86.60;;;;;;5011832;28;20065;-89
2020/12/11 01:32:17;;;;;;;5.03;2.90;;;26.40;87.00;;;;;;4976687;28;20118;-89
2020/12/11 01:34:44;;;;;;;6.82;3.40;;;26.30;86.70;;;;;;4990247;28;20034;-88
2020/12/11 01:37:12;;;;;;;4.75;3.17;;;26.30;86.20;;;;;;4990762;28;20057;-88
2020/12/11 01:39:39;;;;;;;10.20;3.45;;;26.40;86.30;;;;;;4990361;28;20335;-89
2020/12/11 01:42:15;;;;;;;6.40;3.10;;;26.40;85.90;;;;;;4992533;28;20323;-92
2020/12/11 01:44:56;;;;;;;4.28;2.53;;;26.40;85.40;;;;;;5100968;23;20118;-90
2020/12/11 01:47:26;;;;;;;9.43;3.15;;;26.30;85.70;;;;;;5008463;28;20042;-90
2020/12/11 01:49:56;;;;;;;6.63;3.00;;;26.30;85.70;;;;;;5013478;28;20037;-88
2020/12/11 01:52:23;;;;;;;9.00;3.05;;;26.30;86.00;;;;;;4997749;28;20030;-89
2020/12/11 01:54:52;;;;;;;5.00;2.90;;;26.30;86.10;;;;;;4997977;28;20038;-90
2020/12/11 01:57:47;;;;;;;4.00;3.00;;;26.20;85.80;;;;;;4997789;28;20374;-91
2020/12/11 02:00:19;;;;;;;4.63;2.90;;;26.20;86.30;;;;;;4993543;28;20030;-89
2020/12/11 02:02:47;;;;;;;6.05;3.13;;;26.10;87.00;;;;;;4991165;28;20026;-90
2020/12/11 02:05:14;;;;;;;6.07;2.80;;;26.10;86.00;;;;;;4991423;28;20034;-88
2020/12/11 02:07:42;;;;;;;6.50;3.30;;;26.10;85.90;;;;;;4994393;28;20230;-86
2020/12/11 02:10:17;;;;;;;4.88;2.53;;;26.10;87.00;;;;;;5012771;28;20037;-90
2020/12/11 02:12:56;;;;;;;6.45;3.13;;;26.10;86.10;;;;;;5014412;28;20069;-89
2020/12/11 02:15:24;;;;;;;5.15;3.08;;;26.10;86.40;;;;;;4996669;28;20038;-90
2020/12/11 02:17:55;;;;;;;4.30;2.80;;;26.10;86.90;;;;;;4991165;28;20345;-89
2020/12/11 02:20:24;;;;;;;5.03;3.17;;;26.10;86.90;;;;;;4989249;28;20065;-90
2020/12/11 02:22:57;;;;;;;7.68;3.33;;;26.00;86.50;;;;;;4979188;28;20281;-88
2020/12/11 02:25:24;;;;;;;4.07;3.10;;;26.00;86.40;;;;;;4973778;28;20192;-91
2020/12/11 02:27:52;;;;;;;4.30;3.08;;;26.00;86.50;;;;;;4989849;28;20270;-90
2020/12/11 02:30:19;;;;;;;4.43;2.78;;;26.00;86.80;;;;;;4991667;28;20030;-89
2020/12/11 02:32:46;;;;;;;5.00;3.08;;;26.00;86.80;;;;;;5010631;28;20038;-88
2020/12/11 02:35:16;;;;;;;5.75;2.90;;;26.00;87.10;;;;;;4989849;28;20030;-88
2020/12/11 02:37:42;;;;;;;3.58;2.60;;;25.90;87.40;;;;;;4989996;28;20053;-88
2020/12/11 02:40:09;;;;;;;5.53;3.10;;;25.90;87.10;;;;;;5009018;28;20262;-88
2020/12/11 02:42:36;;;;;;;4.40;2.60;;;25.80;86.80;;;;;;4992945;28;20096;-89
2020/12/11 02:45:04;;;;;;;4.45;2.85;;;25.80;87.50;;;;;;4975198;28;20050;-90
2020/12/11 02:47:32;;;;;;;5.03;2.67;;;25.80;87.40;;;;;;4989973;28;20061;-90
2020/12/11 02:50:00;;;;;;;6.65;2.78;;;25.80;86.80;;;;;;4992179;28;20062;-88
2020/12/11 02:52:27;;;;;;;5.63;2.75;;;25.80;87.00;;;;;;4991091;28;20030;-89
2020/12/11 02:54:54;;;;;;;4.57;2.70;;;25.80;86.70;;;;;;4995041;28;20305;-88
2020/12/11 02:57:23;;;;;;;4.45;2.45;;;25.80;87.00;;;;;;4989589;28;20263;-89
2020/12/11 02:59:50;;;;;;;3.97;2.40;;;25.80;86.50;;;;;;4992271;28;20080;-90
2020/12/11 03:02:24;;;;;;;6.07;2.92;;;25.80;86.80;;;;;;4993260;28;20026;-88
2020/12/11 03:05:19;;;;;;;5.90;2.30;;;25.80;87.10;;;;;;4995204;28;20041;-94
2020/12/11 03:07:47;;;;;;;3.65;2.47;;;25.70;87.80;;;;;;4958858;29;20023;-91
2020/12/11 03:10:15;;;;;;;9.75;3.03;;;25.70;87.50;;;;;;4968978;29;20042;-88
2020/12/11 03:12:42;;;;;;;5.90;2.53;;;25.70;87.20;;;;;;4952531;29;20034;-89
2020/12/11 03:15:08;;;;;;;5.80;2.63;;;25.70;86.80;;;;;;4952344;29;20363;-89
2020/12/11 03:17:35;;;;;;;7.03;2.40;;;25.70;86.70;;;;;;4954748;29;20023;-89
2020/12/11 03:20:02;;;;;;;4.97;2.40;;;25.70;86.90;;;;;;4953059;29;20039;-90
2020/12/11 03:22:35;;;;;;;3.53;2.40;;;25.70;86.40;;;;;;4952538;29;20090;-90
2020/12/11 03:25:07;;;;;;;5.82;2.55;;;25.70;86.90;;;;;;4951188;29;20039;-89
2020/12/11 03:27:33;;;;;;;5.97;2.60;;;25.80;86.70;;;;;;4951278;29;20035;-90
2020/12/11 03:30:06;;;;;;;5.38;2.45;;;25.70;86.30;;;;;;4950294;29;20035;-90
2020/12/11 03:32:33;;;;;;;5.78;2.35;;;25.70;85.80;;;;;;4952496;29;20078;-91
2020/12/11 03:35:00;;;;;;;3.75;2.28;;;25.80;85.40;;;;;;4954924;29;20039;-91
2020/12/11 03:37:26;;;;;;;4.60;2.35;;;25.80;85.80;;;;;;4954007;28;20082;-91
2020/12/11 03:39:53;;;;;;;5.00;3.25;;;25.70;86.20;;;;;;4992680;28;20035;-89
2020/12/11 03:42:19;;;;;;;9.07;6.63;;;25.70;86.50;;;;;;5009441;28;20029;-88
2020/12/11 03:44:46;;;;;;;8.45;4.97;;;25.60;86.50;;;;;;4993224;28;20063;-90
2020/12/11 03:47:16;;;;;;;7.68;5.47;;;25.60;85.90;;;;;;4993374;28;20270;-90
2020/12/11 03:49:42;;;;;;;9.40;7.72;;;25.60;86.30;;;;;;4992271;28;20044;-92
2020/12/11 03:52:11;;;;;;;12.52;8.13;;;25.60;86.30;;;;;;5010707;28;20098;-92
2020/12/11 03:54:40;;;;;;;8.13;5.25;;;25.60;86.20;;;;;;4993093;28;20062;-90
2020/12/11 03:57:07;;;;;;;10.48;7.97;;;25.60;86.40;;;;;;4992741;28;20030;-90
2020/12/11 03:59:34;;;;;;;8.48;5.65;;;25.60;86.40;;;;;;4993526;28;20030;-90
2020/12/11 04:02:07;;;;;;;12.90;9.05;;;25.50;87.10;;;;;;4992609;28;20023;-90
2020/12/11 04:04:33;;;;;;;7.70;5.38;;;25.50;86.90;;;;;;4992531;28;20070;-90
2020/12/11 04:07:00;;;;;;;7.47;5.30;;;25.40;86.80;;;;;;4994509;28;20038;-89
2020/12/11 04:09:27;;;;;;;5.35;3.65;;;25.40;86.90;;;;;;4993559;28;20034;-89
2020/12/11 04:11:53;;;;;;;6.72;2.97;;;25.40;86.70;;;;;;4992893;28;20045;-91
2020/12/11 04:14:26;;;;;;;5.38;2.45;;;25.40;86.50;;;;;;4995002;28;20030;-90
2020/12/11 04:16:53;;;;;;;5.13;2.50;;;25.40;86.90;;;;;;5241728;23;20050;-91
2020/12/11 04:19:19;;;;;;;2.75;2.28;;;25.30;86.20;;;;;;4974855;28;20031;-90
2020/12/11 04:21:54;;;;;;;4.05;2.67;;;25.30;86.00;;;;;;4990025;28;20035;-90
2020/12/11 04:24:22;;;;;;;5.15;2.33;;;25.30;85.90;;;;;;4991451;28;20034;-91
2020/12/11 04:26:48;;;;;;;4.45;2.17;;;25.30;85.60;;;;;;4992525;28;20037;-90
2020/12/11 04:29:15;;;;;;;2.58;2.17;;;25.30;85.60;;;;;;4975056;28;20058;-90
2020/12/11 04:31:42;;;;;;;4.53;2.38;;;25.30;85.90;;;;;;4990608;28;20035;-90
2020/12/11 04:34:08;;;;;;;3.22;2.10;;;25.30;85.80;;;;;;4973619;28;20042;-91
2020/12/11 04:36:35;;;;;;;4.53;2.40;;;25.30;85.60;;;;;;4990709;28;20082;-90
2020/12/11 04:39:02;;;;;;;2.95;2.00;;;25.40;85.30;;;;;;4988832;28;20022;-90
2020/12/11 04:41:31;;;;;;;3.90;2.47;;;25.40;85.10;;;;;;4987691;28;20066;-91
2020/12/11 04:43:57;;;;;;;3.63;2.47;;;25.40;84.80;;;;;;4970788;28;20341;-90
2020/12/11 04:46:29;;;;;;;4.72;2.10;;;25.40;84.50;;;;;;4972771;28;20038;-90
2020/12/11 04:49:00;;;;;;;2.17;1.93;;;25.40;84.70;;;;;;4974645;28;20267;-90
2020/12/11 04:51:30;;;;;;;2.70;1.92;;;25.40;84.80;;;;;;4992297;28;20098;-90
2020/12/11 04:54:02;;;;;;;2.83;1.90;;;25.40;84.20;;;;;;4974062;28;20111;-90
2020/12/11 04:56:41;;;;;;;1.75;1.55;;;25.40;84.20;;;;;;4973095;28;20034;-90
2020/12/11 04:59:07;;;;;;;4.03;2.25;;;25.40;84.00;;;;;;4973758;28;20026;-89
2020/12/11 05:01:34;;;;;;;4.03;1.83;;;25.40;83.60;;;;;;4975446;28;20038;-91
2020/12/11 05:04:02;;;;;;;3.90;2.05;;;25.40;83.40;;;;;;4974515;28;20342;-91
2020/12/11 05:06:29;;;;;;;3.42;1.90;;;25.40;82.70;;;;;;4966390;28;20063;-90
2020/12/11 05:09:18;;;;;;;2.08;1.63;;;25.40;83.00;;;;;;4973020;28;20351;-90
2020/12/11 05:11:46;;;;;;;1.85;1.70;;;25.40;83.10;;;;;;4973948;28;20042;-91
2020/12/11 05:14:22;;;;;;;2.55;1.83;;;25.40;82.90;;;;;;4972845;28;20150;-90
2020/12/11 05:17:06;;;;;;;2.03;1.77;;;25.30;83.40;;;;;;4972547;28;20054;-91
2020/12/11 05:19:48;;;;;;;2.33;1.80;;;25.40;83.40;;;;;;4965802;28;20034;-91
2020/12/11 05:22:15;;;;;;;3.38;2.20;;;25.30;84.30;;;;;;4973005;28;20082;-90
2020/12/11 05:24:47;;;;;;;2.30;1.83;;;25.30;83.90;;;;;;4971895;28;20030;-90
2020/12/11 05:27:34;;;;;;;2.50;1.80;;;25.30;84.10;;;;;;4973448;28;20249;-91
2020/12/11 05:30:22;;;;;;;2.70;1.90;;;25.40;83.90;;;;;;4973203;28;20327;-90
2020/12/11 05:32:57;;;;;;;2.00;1.80;;;25.40;83.40;;;;;;4974143;28;20080;-92
2020/12/11 05:35:26;;;;;;;2.58;1.60;;;25.40;83.20;;;;;;4973737;28;20035;-90
2020/12/11 05:38:03;;;;;;;3.42;1.90;;;25.40;83.40;;;;;;4974293;28;20102;-90
2020/12/11 05:40:40;;;;;;;2.45;2.00;;;25.40;82.90;;;;;;4971267;28;20299;-90
2020/12/11 05:43:08;;;;;;;3.03;1.77;;;25.40;83.60;;;;;;4971523;28;20031;-89
2020/12/11 05:45:37;;;;;;;2.33;1.75;;;25.40;83.20;;;;;;4971468;28;20377;-89
2020/12/11 05:48:05;;;;;;;8.52;2.00;;;25.50;83.20;;;;;;4971370;28;20046;-88
2020/12/11 05:50:33;;;;;;;2.92;2.10;;;25.50;83.20;;;;;;4971595;28;20054;-89
2020/12/11 05:53:00;;;;;;;4.93;1.77;;;25.50;83.20;;;;;;4987523;28;20074;-90
2020/12/11 05:55:27;;;;;;;2.55;1.60;;;25.40;83.20;;;;;;4972416;28;20038;-90
2020/12/11 05:57:58;;;;;;;2.78;2.05;;;25.50;83.40;;;;;;4970891;28;20102;-91
2020/12/11 06:00:26;;;;;;;1.63;1.52;;;25.40;83.50;;;;;;4971094;28;20041;-89
2020/12/11 06:02:54;;;;;;;3.65;1.67;;;25.50;83.80;;;;;;4988597;28;20027;-89
2020/12/11 06:05:23;;;;;;;1.85;1.60;;;25.40;83.40;;;;;;4972294;28;20027;-90
2020/12/11 06:07:51;;;;;;;2.85;1.73;;;25.40;83.50;;;;;;4970600;28;20034;-89
2020/12/11 06:10:20;;;;;;;3.33;1.77;;;25.40;83.60;;;;;;4970919;28;20031;-89
2020/12/11 06:12:48;;;;;;;3.00;2.10;;;25.40;83.60;;;;;;4971169;28;20034;-90
2020/12/11 06:15:23;;;;;;;4.50;1.80;;;25.40;82.90;;;;;;4970447;28;20319;-89
2020/12/11 06:17:59;;;;;;;3.15;1.80;;;25.40;83.40;;;;;;4971030;28;20360;-90
2020/12/11 06:20:27;;;;;;;2.22;1.48;;;25.40;82.70;;;;;;4971710;28;20307;-89
2020/12/11 06:22:54;;;;;;;4.63;1.80;;;25.30;83.00;;;;;;4970704;28;20094;-89
2020/12/11 06:25:31;;;;;;;3.22;1.83;;;25.40;83.20;;;;;;4973547;28;20118;-92
2020/12/11 06:27:59;;;;;;;2.63;1.80;;;25.40;83.30;;;;;;4971051;28;20322;-87
2020/12/11 06:30:33;;;;;;;3.05;2.00;;;25.40;84.00;;;;;;4972099;28;20170;-93
2020/12/11 06:33:01;;;;;;;2.33;1.60;;;25.30;84.70;;;;;;4970990;28;20034;-90
2020/12/11 06:35:28;;;;;;;3.05;2.00;;;25.40;84.80;;;;;;4971588;28;20100;-90
2020/12/11 06:37:55;;;;;;;2.63;2.20;;;25.30;85.10;;;;;;4971712;28;20063;-91
2020/12/11 06:40:49;;;;;;;3.10;2.00;;;25.30;85.30;;;;;;4971979;28;20045;-91
2020/12/11 06:43:46;;;;;;;2.65;2.15;;;25.30;85.40;;;;;;4961278;28;20118;-89
2020/12/11 06:46:18;;;;;;;3.28;2.10;;;25.30;85.50;;;;;;4986794;28;20105;-90
2020/12/11 06:49:17;;;;;;;2.95;1.77;;;25.30;84.90;;;;;;4970559;28;20027;-89
2020/12/11 06:51:44;;;;;;;4.00;2.10;;;25.30;86.00;;;;;;4970442;28;20090;-89
2020/12/11 06:54:12;;;;;;;3.30;2.17;;;25.30;86.20;;;;;;4971437;28;20030;-91
2020/12/11 06:56:47;;;;;;;5.50;2.60;;;25.30;86.80;;;;;;4971397;28;20035;-92
2020/12/11 06:59:40;;;;;;;6.70;3.03;;;25.30;86.40;;;;;;4956118;28;20038;-92
2020/12/11 07:02:14;;;;;;;4.75;3.05;;;25.30;86.30;;;;;;4971127;28;20038;-89
2020/12/11 07:04:46;;;;;;;4.82;2.80;;;25.30;86.20;;;;;;4971547;28;20323;-90
2020/12/11 07:07:14;;;;;;;4.53;2.53;;;25.40;86.70;;;;;;4988648;28;20215;-90
2020/12/11 07:09:42;;;;;;;6.03;2.60;;;25.30;86.30;;;;;;4991158;28;20574;-90
2020/12/11 07:12:09;;;;;;;4.05;2.88;;;25.30;86.50;;;;;;4992708;28;20038;-90
2020/12/11 07:14:36;;;;;;;3.63;2.40;;;25.30;86.00;;;;;;4975099;28;20034;-92
2020/12/11 07:17:03;;;;;;;3.95;2.35;;;25.30;86.60;;;;;;4974822;28;20051;-91
2020/12/11 07:19:35;;;;;;;4.68;2.42;;;25.30;86.70;;;;;;4975565;28;20026;-90
2020/12/11 07:22:03;;;;;;;3.30;2.58;;;25.20;86.50;;;;;;4974146;28;20337;-91
2020/12/11 07:24:30;;;;;;;3.78;2.65;;;25.20;86.90;;;;;;4975867;28;20041;-90
2020/12/11 07:27:05;;;;;;;4.30;2.60;;;25.10;86.50;;;;;;4991317;28;20039;-88
2020/12/11 07:29:32;;;;;;;3.42;1.90;;;25.10;86.20;;;;;;4974593;28;20033;-90
2020/12/11 07:31:59;;;;;;;2.63;2.13;;;25.00;86.00;;;;;;4973602;28;20041;-90
2020/12/11 07:34:29;;;;;;;4.28;2.05;;;25.10;85.50;;;;;;4972023;28;20326;-91
2020/12/11 07:36:59;;;;;;;3.00;2.13;;;25.00;86.00;;;;;;4972904;28;20035;-92
2020/12/11 07:39:28;;;;;;;2.70;1.95;;;25.00;85.70;;;;;;4972331;28;20227;-90
2020/12/11 07:41:56;;;;;;;3.83;1.80;;;25.00;85.50;;;;;;4989426;28;20035;-89
2020/12/11 07:44:30;;;;;;;4.45;1.75;;;24.90;85.60;;;;;;4971506;28;20033;-90
2020/12/11 07:46:59;;;;;;;3.13;1.90;;;24.90;86.80;;;;;;4972240;28;20039;-90
2020/12/11 07:49:39;;;;;;;3.90;1.95;;;24.90;85.90;;;;;;4972984;28;20041;-90
2020/12/11 07:52:07;;;;;;;4.53;2.10;;;24.90;86.10;;;;;;4972952;28;20054;-90
2020/12/11 07:54:41;;;;;;;3.08;2.15;;;24.90;85.90;;;;;;4972934;28;20039;-91
2020/12/11 07:57:15;;;;;;;4.45;2.10;;;24.90;85.80;;;;;;4972104;28;20342;-90
2020/12/11 07:59:42;;;;;;;3.60;2.33;;;24.90;85.40;;;;;;4972800;28;20179;-89
2020/12/11 08:02:12;;;;;;;5.28;1.92;;;24.80;84.70;;;;;;4971805;28;20061;-89
2020/12/11 08:04:39;;;;;;;3.85;1.85;;;24.80;84.70;;;;;;4971289;28;20034;-90
2020/12/11 08:07:05;;;;;;;3.30;1.67;;;24.80;84.80;;;;;;4971014;28;20030;-89
2020/12/11 08:09:35;;;;;;;2.25;1.55;;;24.80;85.40;;;;;;4971574;28;20066;-90
2020/12/11 08:12:22;;;;;;;4.88;1.80;;;24.80;85.90;;;;;;4971394;28;20058;-89
2020/12/11 08:14:49;;;;;;;3.20;1.80;;;24.70;86.60;;;;;;4988477;28;20038;-90
2020/12/11 08:17:21;;;;;;;4.13;2.10;;;24.70;86.90;;;;;;4970392;28;20078;-90
2020/12/11 08:19:58;;;;;;;2.97;1.95;;;24.60;87.00;;;;;;4970615;28;20051;-89
2020/12/11 08:22:34;;;;;;;2.35;1.60;;;24.60;86.70;;;;;;4971380;28;20112;-92
2020/12/11 08:25:21;;;;;;;5.28;2.05;;;24.60;87.00;;;;;;4968025;28;20349;-89
2020/12/11 08:27:48;;;;;;;3.80;1.98;;;24.50;87.30;;;;;;4957574;28;20049;-88
2020/12/11 08:30:16;;;;;;;4.60;1.50;;;24.50;86.60;;;;;;4970841;28;20041;-89
2020/12/11 08:32:43;;;;;;;3.92;1.70;;;24.50;86.90;;;;;;4970900;28;20061;-90
2020/12/11 08:35:21;;;;;;;2.45;1.60;;;24.50;87.20;;;;;;4971518;28;20224;-90
2020/12/11 08:37:58;;;;;;;5.47;2.42;;;24.50;87.40;;;;;;4971048;28;20027;-90
2020/12/11 08:40:26;;;;;;;2.97;1.70;;;24.50;87.80;;;;;;4971121;28;20081;-89
2020/12/11 08:43:42;;;;;;;6.75;1.70;;;24.40;87.90;;;;;;4970619;28;20101;-91
2020/12/11 08:51:36;;;;;;;2.25;1.85;;;24.30;87.70;;;;;;4988300;28;20027;-90
2020/12/11 08:54:06;;;;;;;4.72;1.90;;;24.30;87.10;;;;;;4970611;28;20035;-90
2020/12/11 08:56:33;;;;;;;3.60;1.80;;;24.40;87.30;;;;;;4970512;28;20294;-89
2020/12/11 08:58:59;;;;;;;3.50;2.17;;;24.40;87.10;;;;;;4970737;28;20026;-90
2020/12/11 09:01:26;;;;;;;2.97;1.50;;;24.40;86.90;;;;;;4970355;28;20034;-89
2020/12/11 09:03:53;;;;;;;5.55;1.85;;;24.40;86.80;;;;;;4970283;28;20026;-90
2020/12/11 09:06:19;;;;;;;2.67;1.90;;;24.40;87.40;;;;;;4970634;28;20279;-89
2020/12/11 09:08:46;;;;;;;2.10;1.60;;;24.40;87.00;;;;;;4969526;28;20027;-90
2020/12/11 09:11:12;;;;;;;5.15;2.08;;;24.40;87.60;;;;;;4970525;28;20042;-88
2020/12/11 09:13:41;;;;;;;6.15;1.60;;;24.50;87.50;;;;;;4989151;28;20027;-89
2020/12/11 09:16:07;;;;;;;3.08;1.70;;;24.50;87.00;;;;;;4971088;28;20045;-90
2020/12/11 09:18:36;;;;;;;2.88;1.40;;;24.50;85.90;;;;;;4971390;28;20022;-90
2020/12/11 09:21:03;;;;;;;1.83;1.55;;;24.50;85.60;;;;;;4970412;28;20069;-89
2020/12/11 09:23:29;;;;;;;3.35;1.70;;;24.60;85.40;;;;;;4969983;28;20047;-90
2020/12/11 09:25:57;;;;;;;1.80;1.50;;;24.60;85.40;;;;;;4971736;28;20038;-90
2020/12/11 09:28:25;;;;;;;2.40;1.50;;;24.60;85.20;;;;;;4973213;28;20043;-89
2020/12/11 09:30:52;;;;;;;2.75;1.55;;;24.60;84.80;;;;;;4970031;28;20035;-89
2020/12/11 09:33:24;;;;;;;5.10;1.67;;;24.60;85.20;;;;;;4970092;28;20069;-89
2020/12/11 09:36:00;;;;;;;2.92;1.70;;;24.60;84.90;;;;;;4987506;28;20065;-90
2020/12/11 09:38:31;;;;;;;2.95;1.40;;;24.60;85.10;;;;;;4969810;28;20026;-91
2020/12/11 09:41:01;;;;;;;1.73;1.38;;;24.60;85.10;;;;;;4969775;28;20031;-88
2020/12/11 09:48:58;;;;;;;3.35;1.60;;;24.60;85.30;;;;;;4986319;28;20378;-89
2020/12/11 09:54:14;;;;;;;1.98;1.75;;;24.60;85.70;;;;;;4986782;28;20057;-89
2020/12/11 09:56:41;;;;;;;4.87;1.43;;;24.60;85.40;;;;;;4969240;28;20247;-89
2020/12/11 09:59:14;;;;;;;2.63;1.65;;;24.60;85.00;;;;;;4968499;28;20215;-89
2020/12/11 10:04:34;;;;;;;4.20;1.40;;;24.50;85.30;;;;;;4939566;29;20093;-89
2020/12/11 10:07:00;;;;;;;3.22;1.67;;;24.50;84.60;;;;;;4967754;28;20085;-89
2020/12/11 10:09:27;;;;;;;7.68;1.80;;;24.50;85.00;;;;;;4969194;28;20322;-89
2020/12/11 10:11:54;;;;;;;2.60;1.50;;;24.50;85.20;;;;;;4969142;28;20038;-90
2020/12/11 10:14:28;;;;;;;3.55;1.60;;;24.50;85.00;;;;;;4969001;28;20030;-89
2020/12/11 10:16:55;;;;;;;3.10;1.60;;;24.50;85.30;;;;;;4961498;29;20066;-89
2020/12/11 10:19:22;;;;;;;3.20;1.70;;;24.50;85.00;;;;;;4951007;29;20219;-89
2020/12/11 10:21:50;;;;;;;3.50;1.75;;;24.50;85.10;;;;;;4950357;29;20053;-91
2020/12/11 10:24:17;;;;;;;3.38;1.90;;;24.50;85.70;;;;;;4950075;29;20058;-88
2020/12/11 10:26:45;;;;;;;7.70;1.90;;;24.50;85.40;;;;;;4967396;29;20042;-89
2020/12/11 10:29:12;;;;;;;5.75;1.60;;;24.50;85.90;;;;;;4950140;29;20096;-89
2020/12/11 10:31:42;;;;;;;3.75;1.50;;;24.50;85.60;;;;;;4934498;29;20043;-86
2020/12/11 10:34:25;;;;;;;5.75;3.03;;;24.50;85.60;;;;;;4927611;29;20035;-90
2020/12/11 10:36:52;;;;;;;2.65;1.48;;;24.40;85.90;;;;;;4931667;29;20213;-90
2020/12/11 10:39:19;;;;;;;3.45;1.92;;;24.50;85.70;;;;;;4928221;29;20035;-90
2020/12/11 10:41:46;;;;;;;2.35;1.48;;;24.40;86.10;;;;;;4932925;29;20036;-91
2020/12/11 10:44:17;;;;;;;4.57;1.63;;;24.40;86.20;;;;;;4933983;29;20028;-90
2020/12/11 10:47:11;;;;;;;1.65;1.50;;;24.40;86.80;;;;;;4902591;29;20044;-91
2020/12/11 10:49:41;;;;;;;3.08;1.85;;;24.50;86.80;;;;;;4891905;29;20369;-88
2020/12/11 10:52:08;;;;;;;3.63;2.10;;;24.50;86.90;;;;;;4927749;29;20052;-90
2020/12/11 10:54:56;;;;;;;2.80;2.10;;;24.50;86.50;;;;;;4927005;29;20332;-91
2020/12/11 10:57:24;;;;;;;2.75;1.67;;;24.50;86.70;;;;;;4928003;29;20165;-90
2020/12/11 10:59:50;;;;;;;4.90;2.53;;;24.50;86.70;;;;;;4911627;29;20293;-88
2020/12/11 11:02:17;;;;;;;2.80;1.92;;;24.50;87.10;;;;;;4926272;29;20317;-85
2020/12/11 11:04:52;;;;;;;3.72;1.75;;;24.50;87.20;;;;;;4935290;29;20034;-90
2020/12/11 11:07:53;;;;;;;5.28;2.10;;;24.60;87.70;;;;;;4949274;29;20247;-90
2020/12/11 11:10:33;;;;;;;3.70;2.30;;;24.60;88.10;;;;;;4965620;29;20197;-90
2020/12/11 11:23:38;;;;;;;4.82;1.95;;;24.90;88.50;;;;;;4990580;28;20080;-89
2020/12/11 11:29:08;;;;;;;4.18;2.15;;;24.90;87.70;;;;;;4967106;28;20030;-88
2020/12/11 11:31:35;;;;;;;3.65;1.98;;;25.00;87.10;;;;;;4968280;28;20030;-88
2020/12/11 11:34:05;;;;;;;3.10;1.90;;;25.00;87.10;;;;;;4969325;28;20035;-88
2020/12/11 11:36:32;;;;;;;2.72;1.63;;;24.90;86.80;;;;;;4968358;28;20330;-89
2020/12/11 11:38:59;;;;;;;2.40;1.70;;;24.90;86.50;;;;;;4968287;28;20046;-88
2020/12/11 11:41:45;;;;;;;4.80;1.95;;;24.90;86.80;;;;;;4967232;28;20214;-88
2020/12/11 11:46:49;;;;;;;7.20;2.60;;;24.90;86.20;;;;;;4985068;28;20023;-87
2020/12/11 11:49:51;;;;;;;9.27;2.33;;;25.00;85.50;;;;;;4967936;28;20049;-88
2020/12/11 11:52:16;;;;;;;8.38;2.42;;;25.00;84.50;;;;;;4985224;28;20022;-87
2020/12/11 11:54:43;;;;;;;3.55;1.80;;;25.10;83.90;;;;;;4988926;28;20042;-85
2020/12/11 11:57:10;;;;;;;6.05;1.80;;;25.10;83.20;;;;;;4972740;28;20027;-86
2020/12/11 11:59:36;;;;;;;3.30;1.63;;;25.10;82.90;;;;;;4989104;28;20031;-86
2020/12/11 12:02:03;;;;;;;5.40;1.60;;;25.20;82.10;;;;;;4989131;28;20280;-88
2020/12/11 12:04:30;;;;;;;3.05;1.70;;;25.20;82.20;;;;;;4976229;28;20222;-88
2020/12/11 12:06:57;;;;;;;3.67;1.85;;;25.20;82.50;;;;;;4971458;28;20046;-87
2020/12/11 12:09:24;;;;;;;6.35;2.58;;;25.20;80.90;;;;;;4971296;28;20058;-86
2020/12/11 12:11:50;;;;;;;7.63;3.33;;;25.20;82.60;;;;;;4971076;28;20094;-88
2020/12/11 12:14:17;;;;;;;8.85;4.00;;;25.30;81.90;;;;;;4971369;28;20385;-89
2020/12/11 12:16:45;;;;;;;5.45;2.40;;;25.40;80.70;;;;;;4970880;28;20263;-88
2020/12/11 12:19:24;;;;;;;2.97;1.65;;;25.50;81.10;;;;;;4988163;28;20030;-88
2020/12/11 12:29:47;;;;;;;10.02;2.17;;;25.80;80.50;;;;;;4988020;28;20034;-88
2020/12/11 12:32:16;;;;;;;7.53;2.70;;;25.80;80.80;;;;;;4970765;28;20194;-87
2020/12/11 12:37:31;;;;;;;5.40;2.65;;;25.80;81.10;;;;;;4987895;28;20025;-88
2020/12/11 12:45:19;;;;;;;4.20;1.98;;;26.30;82.40;;;;;;4988252;28;20045;-89
2020/12/11 12:47:45;;;;;;;5.90;2.60;;;26.60;81.50;;;;;;4987499;28;20038;-90
2020/12/11 12:50:17;;;;;;;2.08;1.88;;;26.90;80.20;;;;;;4970172;28;20081;-88
2020/12/11 12:52:44;;;;;;;4.28;2.05;;;27.10;78.20;;;;;;4970595;28;20038;-89
2020/12/11 12:55:14;;;;;;;6.53;2.00;;;27.30;78.80;;;;;;4970189;28;20037;-90
2020/12/11 13:00:32;;;;;;;4.82;2.05;;;27.40;78.60;;;;;;4987362;28;20030;-88
2020/12/11 13:03:21;;;;;;;2.55;1.80;;;27.30;79.00;;;;;;4987630;28;20027;-87
2020/12/11 13:05:48;;;;;;;4.90;2.08;;;27.30;79.70;;;;;;4981198;28;20386;-89
2020/12/11 13:08:15;;;;;;;3.30;1.88;;;27.70;78.80;;;;;;4970667;28;20042;-88
2020/12/11 13:10:50;;;;;;;6.38;1.77;;;27.90;78.20;;;;;;4970262;28;20034;-89
2020/12/11 13:13:20;;;;;;;3.50;2.15;;;27.90;77.10;;;;;;4969872;28;20034;-85
2020/12/11 13:15:46;;;;;;;2.30;1.50;;;27.70;77.80;;;;;;4968858;28;20054;-87
2020/12/11 13:18:13;;;;;;;8.50;2.42;;;27.80;77.00;;;;;;4987281;28;20058;-88
2020/12/11 13:20:44;;;;;;;3.25;2.10;;;28.10;78.10;;;;;;4970416;28;20235;-88
2020/12/11 13:26:20;;;;;;;3.85;2.08;;;28.30;76.40;;;;;;4987150;28;20036;-86
2020/12/11 13:28:47;;;;;;;5.45;1.77;;;28.30;77.70;;;;;;4969350;28;20030;-86
2020/12/11 13:31:17;;;;;;;4.22;2.08;;;28.30;76.40;;;;;;4968799;28;20034;-85
2020/12/11 13:33:44;;;;;;;5.93;1.63;;;28.40;77.70;;;;;;4969388;28;20219;-89
2020/12/11 13:36:11;;;;;;;5.40;1.88;;;28.30;77.20;;;;;;4969366;28;20038;-88
2020/12/11 13:38:37;;;;;;;3.40;1.80;;;28.40;77.00;;;;;;4969248;28;20049;-88
2020/12/11 13:41:04;;;;;;;5.40;2.10;;;28.50;76.80;;;;;;4969404;28;20183;-89
2020/12/11 13:43:30;;;;;;;5.05;2.45;;;28.40;77.10;;;;;;4968934;28;20066;-90
2020/12/11 13:45:57;;;;;;;2.58;1.92;;;28.80;76.80;;;;;;4968197;28;20045;-87
2020/12/11 13:48:26;;;;;;;3.35;1.80;;;28.80;75.10;;;;;;4968103;28;20315;-89
2020/12/11 13:50:53;;;;;;;4.95;1.90;;;28.70;76.30;;;;;;4968703;28;20034;-89
2020/12/11 13:53:21;;;;;;;5.22;1.92;;;28.60;75.40;;;;;;4961590;28;20030;-90
2020/12/11 13:55:47;;;;;;;11.30;2.42;;;28.60;76.60;;;;;;4968927;28;20070;-85
2020/12/11 13:58:15;;;;;;;4.68;2.20;;;28.40;75.40;;;;;;4986236;28;20042;-86